sensor_id;sensor_type;location;lat;lon;timestamp;P1;durP1;ratioP1;P2;durP2;ratioP2
20124;SDS011;10223;50.862;4.360;2023-08-30T00:01:48;7.25;;;4.07;;
20124;SDS011;10223;50.862;4.360;2023-08-30T00:04:15;8.80;;;4.63;;
20124;SDS011;10223;50.862;4.360;2023-08-30T00:06:42;8.45;;;4.97;;
20124;SDS011;10223;50.862;4.360;2023-08-30T00:09:09;9.00;;;4.65;;
20124;SDS011;10223;50.862;4.360;2023-08-30T00:11:38;13.70;;;8.38;;
20124;SDS011;10223;50.862;4.360;2023-08-30T00:14:06;10.55;;;4.28;;
20124;SDS011;10223;50.862;4.360;2023-08-30T00:16:33;9.73;;;4.53;;
20124;SDS011;10223;50.862;4.360;2023-08-30T00:19:00;8.80;;;4.40;;
20124;SDS011;10223;50.862;4.360;2023-08-30T00:21:27;9.53;;;4.27;;
20124;SDS011;10223;50.862;4.360;2023-08-30T00:23:54;9.37;;;5.00;;
20124;SDS011;10223;50.862;4.360;2023-08-30T00:26:21;6.73;;;4.37;;
20124;SDS011;10223;50.862;4.360;2023-08-30T00:28:51;8.30;;;4.67;;
20124;SDS011;10223;50.862;4.360;2023-08-30T00:31:19;7.17;;;4.57;;
20124;SDS011;10223;50.862;4.360;2023-08-30T00:33:47;9.37;;;5.10;;
20124;SDS011;10223;50.862;4.360;2023-08-30T00:36:14;9.73;;;4.00;;
20124;SDS011;10223;50.862;4.360;2023-08-30T00:38:42;9.33;;;4.40;;
20124;SDS011;10223;50.862;4.360;2023-08-30T00:41:09;9.97;;;4.53;;
20124;SDS011;10223;50.862;4.360;2023-08-30T00:43:36;7.93;;;4.57;;
20124;SDS011;10223;50.862;4.360;2023-08-30T00:46:03;8.10;;;4.87;;
20124;SDS011;10223;50.862;4.360;2023-08-30T00:48:31;8.50;;;5.10;;
20124;SDS011;10223;50.862;4.360;2023-08-30T00:50:58;10.47;;;4.73;;
20124;SDS011;10223;50.862;4.360;2023-08-30T00:53:25;12.03;;;5.60;;
20124;SDS011;10223;50.862;4.360;2023-08-30T00:55:52;8.90;;;5.20;;
20124;SDS011;10223;50.862;4.360;2023-08-30T00:58:18;8.57;;;5.10;;
20124;SDS011;10223;50.862;4.360;2023-08-30T01:00:46;9.60;;;5.23;;
20124;SDS011;10223;50.862;4.360;2023-08-30T01:03:13;9.83;;;4.97;;
20124;SDS011;10223;50.862;4.360;2023-08-30T01:05:41;7.97;;;5.03;;
20124;SDS011;10223;50.862;4.360;2023-08-30T01:08:08;9.60;;;5.23;;
20124;SDS011;10223;50.862;4.360;2023-08-30T01:10:39;10.17;;;5.40;;
20124;SDS011;10223;50.862;4.360;2023-08-30T01:13:16;9.87;;;5.13;;
20124;SDS011;10223;50.862;4.360;2023-08-30T01:15:46;12.57;;;4.80;;
20124;SDS011;10223;50.862;4.360;2023-08-30T01:18:13;8.13;;;4.40;;
20124;SDS011;10223;50.862;4.360;2023-08-30T01:20:45;9.87;;;5.13;;
20124;SDS011;10223;50.862;4.360;2023-08-30T01:23:16;6.50;;;4.10;;
20124;SDS011;10223;50.862;4.360;2023-08-30T01:25:51;8.90;;;5.27;;
20124;SDS011;10223;50.862;4.360;2023-08-30T01:28:23;10.77;;;4.77;;
20124;SDS011;10223;50.862;4.360;2023-08-30T01:30:52;9.93;;;4.67;;
20124;SDS011;10223;50.862;4.360;2023-08-30T01:33:22;7.63;;;4.90;;
20124;SDS011;10223;50.862;4.360;2023-08-30T01:35:52;7.63;;;4.80;;
20124;SDS011;10223;50.862;4.360;2023-08-30T01:38:20;8.90;;;5.33;;
20124;SDS011;10223;50.862;4.360;2023-08-30T01:40:49;7.43;;;5.20;;
20124;SDS011;10223;50.862;4.360;2023-08-30T01:43:17;8.23;;;4.60;;
20124;SDS011;10223;50.862;4.360;2023-08-30T01:45:46;8.40;;;4.87;;
20124;SDS011;10223;50.862;4.360;2023-08-30T01:48:13;6.97;;;4.80;;
20124;SDS011;10223;50.862;4.360;2023-08-30T01:50:42;11.00;;;5.10;;
20124;SDS011;10223;50.862;4.360;2023-08-30T01:53:10;8.87;;;5.37;;
20124;SDS011;10223;50.862;4.360;2023-08-30T01:55:39;9.23;;;5.33;;
20124;SDS011;10223;50.862;4.360;2023-08-30T01:58:06;8.03;;;4.60;;
20124;SDS011;10223;50.862;4.360;2023-08-30T02:00:34;10.33;;;5.20;;
20124;SDS011;10223;50.862;4.360;2023-08-30T02:03:08;9.43;;;4.80;;
20124;SDS011;10223;50.862;4.360;2023-08-30T02:05:35;7.27;;;4.83;;
20124;SDS011;10223;50.862;4.360;2023-08-30T02:08:05;14.73;;;4.90;;
20124;SDS011;10223;50.862;4.360;2023-08-30T02:10:40;7.77;;;4.70;;
20124;SDS011;10223;50.862;4.360;2023-08-30T02:13:11;7.93;;;5.00;;
20124;SDS011;10223;50.862;4.360;2023-08-30T02:15:39;10.13;;;5.47;;
20124;SDS011;10223;50.862;4.360;2023-08-30T02:18:10;8.33;;;4.47;;
20124;SDS011;10223;50.862;4.360;2023-08-30T02:20:37;10.23;;;4.70;;
20124;SDS011;10223;50.862;4.360;2023-08-30T02:23:04;12.40;;;4.73;;
20124;SDS011;10223;50.862;4.360;2023-08-30T02:25:30;7.33;;;4.50;;
20124;SDS011;10223;50.862;4.360;2023-08-30T02:27:57;7.60;;;4.73;;
20124;SDS011;10223;50.862;4.360;2023-08-30T02:30:24;7.77;;;4.53;;
20124;SDS011;10223;50.862;4.360;2023-08-30T02:32:51;7.67;;;4.30;;
20124;SDS011;10223;50.862;4.360;2023-08-30T02:35:19;8.47;;;4.70;;
20124;SDS011;10223;50.862;4.360;2023-08-30T02:37:46;9.17;;;3.80;;
20124;SDS011;10223;50.862;4.360;2023-08-30T02:40:13;9.57;;;4.47;;
20124;SDS011;10223;50.862;4.360;2023-08-30T02:42:40;8.40;;;4.20;;
20124;SDS011;10223;50.862;4.360;2023-08-30T02:45:07;10.53;;;4.00;;
20124;SDS011;10223;50.862;4.360;2023-08-30T02:47:35;7.47;;;3.80;;
20124;SDS011;10223;50.862;4.360;2023-08-30T02:50:02;9.93;;;4.40;;
20124;SDS011;10223;50.862;4.360;2023-08-30T02:52:31;10.77;;;4.33;;
20124;SDS011;10223;50.862;4.360;2023-08-30T02:54:57;7.90;;;4.07;;
20124;SDS011;10223;50.862;4.360;2023-08-30T02:57:24;9.93;;;4.50;;
20124;SDS011;10223;50.862;4.360;2023-08-30T02:59:51;8.50;;;3.80;;
20124;SDS011;10223;50.862;4.360;2023-08-30T03:02:18;9.00;;;4.37;;
20124;SDS011;10223;50.862;4.360;2023-08-30T03:04:45;6.77;;;3.93;;
20124;SDS011;10223;50.862;4.360;2023-08-30T03:07:12;6.73;;;4.33;;
20124;SDS011;10223;50.862;4.360;2023-08-30T03:09:40;7.30;;;4.30;;
20124;SDS011;10223;50.862;4.360;2023-08-30T03:12:07;8.50;;;4.67;;
20124;SDS011;10223;50.862;4.360;2023-08-30T03:14:34;18.30;;;5.07;;
20124;SDS011;10223;50.862;4.360;2023-08-30T03:17:00;13.07;;;5.40;;
20124;SDS011;10223;50.862;4.360;2023-08-30T03:19:27;12.30;;;5.07;;
20124;SDS011;10223;50.862;4.360;2023-08-30T03:21:54;11.03;;;5.30;;
20124;SDS011;10223;50.862;4.360;2023-08-30T03:24:21;12.37;;;5.57;;
20124;SDS011;10223;50.862;4.360;2023-08-30T03:26:49;9.83;;;5.77;;
20124;SDS011;10223;50.862;4.360;2023-08-30T03:29:16;9.07;;;5.47;;
20124;SDS011;10223;50.862;4.360;2023-08-30T03:31:42;12.77;;;5.87;;
20124;SDS011;10223;50.862;4.360;2023-08-30T03:34:09;10.40;;;5.30;;
20124;SDS011;10223;50.862;4.360;2023-08-30T03:36:36;12.23;;;5.23;;
20124;SDS011;10223;50.862;4.360;2023-08-30T03:39:04;13.33;;;5.77;;
20124;SDS011;10223;50.862;4.360;2023-08-30T03:41:31;11.77;;;5.63;;
20124;SDS011;10223;50.862;4.360;2023-08-30T03:43:59;10.27;;;5.07;;
20124;SDS011;10223;50.862;4.360;2023-08-30T03:46:27;10.63;;;5.37;;
20124;SDS011;10223;50.862;4.360;2023-08-30T03:48:53;10.97;;;5.80;;
20124;SDS011;10223;50.862;4.360;2023-08-30T03:51:21;11.63;;;5.50;;
20124;SDS011;10223;50.862;4.360;2023-08-30T03:53:48;9.87;;;5.07;;
20124;SDS011;10223;50.862;4.360;2023-08-30T03:56:15;11.90;;;5.83;;
20124;SDS011;10223;50.862;4.360;2023-08-30T03:58:42;13.17;;;6.07;;
20124;SDS011;10223;50.862;4.360;2023-08-30T04:01:10;10.80;;;5.10;;
20124;SDS011;10223;50.862;4.360;2023-08-30T04:03:37;19.50;;;5.80;;
20124;SDS011;10223;50.862;4.360;2023-08-30T04:06:04;10.73;;;4.87;;
20124;SDS011;10223;50.862;4.360;2023-08-30T04:08:31;11.20;;;4.90;;
20124;SDS011;10223;50.862;4.360;2023-08-30T04:10:58;9.47;;;4.70;;
20124;SDS011;10223;50.862;4.360;2023-08-30T04:13:25;10.83;;;5.10;;
20124;SDS011;10223;50.862;4.360;2023-08-30T04:15:52;12.37;;;5.53;;
20124;SDS011;10223;50.862;4.360;2023-08-30T04:18:20;12.87;;;5.23;;
20124;SDS011;10223;50.862;4.360;2023-08-30T04:20:47;12.07;;;5.33;;
20124;SDS011;10223;50.862;4.360;2023-08-30T04:23:14;11.73;;;5.67;;
20124;SDS011;10223;50.862;4.360;2023-08-30T04:25:41;8.50;;;4.87;;
20124;SDS011;10223;50.862;4.360;2023-08-30T04:28:08;16.03;;;5.10;;
20124;SDS011;10223;50.862;4.360;2023-08-30T04:30:35;9.63;;;4.50;;
20124;SDS011;10223;50.862;4.360;2023-08-30T04:33:03;10.00;;;5.03;;
20124;SDS011;10223;50.862;4.360;2023-08-30T04:35:31;9.77;;;4.63;;
20124;SDS011;10223;50.862;4.360;2023-08-30T04:37:58;8.60;;;4.63;;
20124;SDS011;10223;50.862;4.360;2023-08-30T04:40:25;10.43;;;4.73;;
20124;SDS011;10223;50.862;4.360;2023-08-30T04:42:53;9.53;;;4.80;;
20124;SDS011;10223;50.862;4.360;2023-08-30T04:45:20;10.47;;;4.97;;
20124;SDS011;10223;50.862;4.360;2023-08-30T04:47:47;9.93;;;5.20;;
20124;SDS011;10223;50.862;4.360;2023-08-30T04:50:14;10.30;;;4.93;;
20124;SDS011;10223;50.862;4.360;2023-08-30T04:52:43;11.33;;;5.57;;
20124;SDS011;10223;50.862;4.360;2023-08-30T04:55:10;10.40;;;5.20;;
20124;SDS011;10223;50.862;4.360;2023-08-30T04:57:37;12.43;;;5.23;;
20124;SDS011;10223;50.862;4.360;2023-08-30T05:00:04;14.10;;;5.50;;
20124;SDS011;10223;50.862;4.360;2023-08-30T05:02:32;10.60;;;5.50;;
20124;SDS011;10223;50.862;4.360;2023-08-30T05:04:59;14.67;;;5.93;;
20124;SDS011;10223;50.862;4.360;2023-08-30T05:07:26;15.23;;;5.40;;
20124;SDS011;10223;50.862;4.360;2023-08-30T05:09:54;11.13;;;5.97;;
20124;SDS011;10223;50.862;4.360;2023-08-30T05:12:21;12.87;;;6.17;;
20124;SDS011;10223;50.862;4.360;2023-08-30T05:14:47;13.57;;;6.30;;
20124;SDS011;10223;50.862;4.360;2023-08-30T05:17:14;15.60;;;6.70;;
20124;SDS011;10223;50.862;4.360;2023-08-30T05:19:41;15.10;;;6.33;;
20124;SDS011;10223;50.862;4.360;2023-08-30T05:22:08;18.27;;;7.90;;
20124;SDS011;10223;50.862;4.360;2023-08-30T05:24:35;17.97;;;9.30;;
20124;SDS011;10223;50.862;4.360;2023-08-30T05:27:04;20.40;;;9.50;;
20124;SDS011;10223;50.862;4.360;2023-08-30T05:29:32;20.97;;;8.97;;
20124;SDS011;10223;50.862;4.360;2023-08-30T05:31:59;19.67;;;9.13;;
20124;SDS011;10223;50.862;4.360;2023-08-30T05:34:25;15.27;;;7.87;;
20124;SDS011;10223;50.862;4.360;2023-08-30T05:36:53;20.37;;;8.37;;
20124;SDS011;10223;50.862;4.360;2023-08-30T05:39:20;15.73;;;7.67;;
20124;SDS011;10223;50.862;4.360;2023-08-30T05:41:47;12.53;;;7.07;;
20124;SDS011;10223;50.862;4.360;2023-08-30T05:44:15;16.20;;;7.87;;
20124;SDS011;10223;50.862;4.360;2023-08-30T05:46:42;13.60;;;6.37;;
20124;SDS011;10223;50.862;4.360;2023-08-30T05:49:09;10.33;;;5.97;;
20124;SDS011;10223;50.862;4.360;2023-08-30T05:51:35;9.93;;;5.87;;
20124;SDS011;10223;50.862;4.360;2023-08-30T05:54:02;11.23;;;6.43;;
20124;SDS011;10223;50.862;4.360;2023-08-30T05:56:30;12.47;;;6.20;;
20124;SDS011;10223;50.862;4.360;2023-08-30T05:58:57;10.17;;;6.30;;
20124;SDS011;10223;50.862;4.360;2023-08-30T06:01:25;10.40;;;5.47;;
20124;SDS011;10223;50.862;4.360;2023-08-30T06:03:52;9.47;;;5.73;;
20124;SDS011;10223;50.862;4.360;2023-08-30T06:06:19;11.03;;;5.63;;
20124;SDS011;10223;50.862;4.360;2023-08-30T06:08:46;10.70;;;5.50;;
20124;SDS011;10223;50.862;4.360;2023-08-30T06:11:13;8.83;;;5.30;;
20124;SDS011;10223;50.862;4.360;2023-08-30T06:13:40;6.13;;;4.73;;
20124;SDS011;10223;50.862;4.360;2023-08-30T06:16:07;11.90;;;5.23;;
20124;SDS011;10223;50.862;4.360;2023-08-30T06:18:35;8.40;;;4.47;;
20124;SDS011;10223;50.862;4.360;2023-08-30T06:21:03;13.90;;;4.97;;
20124;SDS011;10223;50.862;4.360;2023-08-30T06:23:30;10.07;;;4.70;;
20124;SDS011;10223;50.862;4.360;2023-08-30T06:25:57;12.07;;;5.70;;
20124;SDS011;10223;50.862;4.360;2023-08-30T06:28:24;7.03;;;4.67;;
20124;SDS011;10223;50.862;4.360;2023-08-30T06:30:51;10.53;;;5.20;;
20124;SDS011;10223;50.862;4.360;2023-08-30T06:33:18;11.23;;;5.57;;
20124;SDS011;10223;50.862;4.360;2023-08-30T06:35:48;8.73;;;4.93;;
20124;SDS011;10223;50.862;4.360;2023-08-30T06:38:15;6.63;;;4.33;;
20124;SDS011;10223;50.862;4.360;2023-08-30T06:40:43;9.97;;;5.60;;
20124;SDS011;10223;50.862;4.360;2023-08-30T06:43:10;10.90;;;5.87;;
20124;SDS011;10223;50.862;4.360;2023-08-30T06:45:37;13.33;;;6.10;;
20124;SDS011;10223;50.862;4.360;2023-08-30T06:48:04;11.83;;;6.07;;
20124;SDS011;10223;50.862;4.360;2023-08-30T06:50:32;8.87;;;5.50;;
20124;SDS011;10223;50.862;4.360;2023-08-30T06:53:00;11.90;;;6.70;;
20124;SDS011;10223;50.862;4.360;2023-08-30T06:55:27;12.63;;;6.00;;
20124;SDS011;10223;50.862;4.360;2023-08-30T06:57:54;10.47;;;6.70;;
20124;SDS011;10223;50.862;4.360;2023-08-30T07:00:21;11.67;;;6.53;;
20124;SDS011;10223;50.862;4.360;2023-08-30T07:02:48;8.53;;;6.40;;
20124;SDS011;10223;50.862;4.360;2023-08-30T07:05:15;13.37;;;6.80;;
20124;SDS011;10223;50.862;4.360;2023-08-30T07:07:42;9.07;;;6.27;;
20124;SDS011;10223;50.862;4.360;2023-08-30T07:10:10;12.97;;;6.33;;
20124;SDS011;10223;50.862;4.360;2023-08-30T07:12:37;11.90;;;6.33;;
20124;SDS011;10223;50.862;4.360;2023-08-30T07:15:04;9.73;;;6.07;;
20124;SDS011;10223;50.862;4.360;2023-08-30T07:17:32;10.97;;;6.53;;
20124;SDS011;10223;50.862;4.360;2023-08-30T07:19:59;10.40;;;6.47;;
20124;SDS011;10223;50.862;4.360;2023-08-30T07:22:26;10.70;;;7.40;;
20124;SDS011;10223;50.862;4.360;2023-08-30T07:24:53;10.90;;;7.27;;
20124;SDS011;10223;50.862;4.360;2023-08-30T07:27:21;14.40;;;7.80;;
20124;SDS011;10223;50.862;4.360;2023-08-30T07:29:48;13.03;;;7.67;;
20124;SDS011;10223;50.862;4.360;2023-08-30T07:32:15;16.50;;;8.03;;
20124;SDS011;10223;50.862;4.360;2023-08-30T07:34:41;12.83;;;8.50;;
20124;SDS011;10223;50.862;4.360;2023-08-30T07:37:16;10.33;;;7.53;;
20124;SDS011;10223;50.862;4.360;2023-08-30T07:39:44;16.30;;;8.33;;
20124;SDS011;10223;50.862;4.360;2023-08-30T07:42:10;10.33;;;6.67;;
20124;SDS011;10223;50.862;4.360;2023-08-30T07:44:39;15.47;;;8.07;;
20124;SDS011;10223;50.862;4.360;2023-08-30T07:47:05;11.70;;;7.43;;
20124;SDS011;10223;50.862;4.360;2023-08-30T07:49:32;12.50;;;7.17;;
20124;SDS011;10223;50.862;4.360;2023-08-30T07:51:59;12.97;;;7.80;;
20124;SDS011;10223;50.862;4.360;2023-08-30T07:54:26;12.93;;;7.40;;
20124;SDS011;10223;50.862;4.360;2023-08-30T07:56:53;13.53;;;7.70;;
20124;SDS011;10223;50.862;4.360;2023-08-30T07:59:19;11.73;;;7.13;;
20124;SDS011;10223;50.862;4.360;2023-08-30T08:01:48;12.80;;;7.77;;
20124;SDS011;10223;50.862;4.360;2023-08-30T08:04:16;10.63;;;6.40;;
20124;SDS011;10223;50.862;4.360;2023-08-30T08:06:43;13.50;;;6.50;;
20124;SDS011;10223;50.862;4.360;2023-08-30T08:09:10;11.70;;;6.47;;
20124;SDS011;10223;50.862;4.360;2023-08-30T08:11:37;13.63;;;7.67;;
20124;SDS011;10223;50.862;4.360;2023-08-30T08:14:08;14.70;;;7.00;;
20124;SDS011;10223;50.862;4.360;2023-08-30T08:16:35;15.73;;;6.87;;
20124;SDS011;10223;50.862;4.360;2023-08-30T08:19:03;10.80;;;6.23;;
20124;SDS011;10223;50.862;4.360;2023-08-30T08:21:31;11.30;;;6.17;;
20124;SDS011;10223;50.862;4.360;2023-08-30T08:23:58;9.97;;;5.67;;
20124;SDS011;10223;50.862;4.360;2023-08-30T08:26:24;12.10;;;6.87;;
20124;SDS011;10223;50.862;4.360;2023-08-30T08:28:51;10.70;;;6.17;;
20124;SDS011;10223;50.862;4.360;2023-08-30T08:31:19;11.10;;;5.60;;
20124;SDS011;10223;50.862;4.360;2023-08-30T08:33:46;11.37;;;6.20;;
20124;SDS011;10223;50.862;4.360;2023-08-30T08:36:17;9.77;;;5.70;;
20124;SDS011;10223;50.862;4.360;2023-08-30T08:38:44;8.03;;;5.77;;
20124;SDS011;10223;50.862;4.360;2023-08-30T08:41:12;9.53;;;5.20;;
20124;SDS011;10223;50.862;4.360;2023-08-30T08:43:40;9.37;;;5.50;;
20124;SDS011;10223;50.862;4.360;2023-08-30T08:46:08;8.47;;;5.50;;
20124;SDS011;10223;50.862;4.360;2023-08-30T08:48:40;10.73;;;4.87;;
20124;SDS011;10223;50.862;4.360;2023-08-30T08:51:09;8.30;;;5.53;;
20124;SDS011;10223;50.862;4.360;2023-08-30T08:53:38;10.73;;;5.60;;
20124;SDS011;10223;50.862;4.360;2023-08-30T08:56:04;9.30;;;5.27;;
20124;SDS011;10223;50.862;4.360;2023-08-30T08:58:34;10.90;;;6.00;;
20124;SDS011;10223;50.862;4.360;2023-08-30T09:01:03;9.83;;;4.80;;
20124;SDS011;10223;50.862;4.360;2023-08-30T09:03:32;7.63;;;5.50;;
20124;SDS011;10223;50.862;4.360;2023-08-30T09:06:01;10.17;;;4.93;;
20124;SDS011;10223;50.862;4.360;2023-08-30T09:08:29;8.50;;;4.70;;
20124;SDS011;10223;50.862;4.360;2023-08-30T09:10:57;6.77;;;4.87;;
20124;SDS011;10223;50.862;4.360;2023-08-30T09:13:24;8.30;;;5.17;;
20124;SDS011;10223;50.862;4.360;2023-08-30T09:15:51;7.17;;;5.03;;
20124;SDS011;10223;50.862;4.360;2023-08-30T09:18:18;9.60;;;5.17;;
20124;SDS011;10223;50.862;4.360;2023-08-30T09:20:45;9.43;;;5.77;;
20124;SDS011;10223;50.862;4.360;2023-08-30T09:23:18;8.67;;;6.03;;
20124;SDS011;10223;50.862;4.360;2023-08-30T09:25:46;9.67;;;5.50;;
20124;SDS011;10223;50.862;4.360;2023-08-30T09:28:21;12.77;;;6.60;;
20124;SDS011;10223;50.862;4.360;2023-08-30T09:30:49;10.70;;;5.67;;
20124;SDS011;10223;50.862;4.360;2023-08-30T09:33:19;8.17;;;5.93;;
20124;SDS011;10223;50.862;4.360;2023-08-30T09:35:47;8.03;;;6.13;;
20124;SDS011;10223;50.862;4.360;2023-08-30T09:38:17;7.70;;;5.93;;
20124;SDS011;10223;50.862;4.360;2023-08-30T09:40:44;7.90;;;6.43;;
20124;SDS011;10223;50.862;4.360;2023-08-30T09:43:11;8.93;;;6.40;;
20124;SDS011;10223;50.862;4.360;2023-08-30T09:45:41;10.43;;;6.70;;
20124;SDS011;10223;50.862;4.360;2023-08-30T09:48:08;12.10;;;6.47;;
20124;SDS011;10223;50.862;4.360;2023-08-30T09:50:35;9.67;;;6.47;;
20124;SDS011;10223;50.862;4.360;2023-08-30T09:53:04;10.83;;;7.23;;
20124;SDS011;10223;50.862;4.360;2023-08-30T09:55:34;17.20;;;7.23;;
20124;SDS011;10223;50.862;4.360;2023-08-30T09:58:02;8.13;;;6.37;;
20124;SDS011;10223;50.862;4.360;2023-08-30T10:00:30;7.43;;;5.95;;
20124;SDS011;10223;50.862;4.360;2023-08-30T10:03:00;9.87;;;6.50;;
20124;SDS011;10223;50.862;4.360;2023-08-30T10:05:27;15.70;;;7.10;;
20124;SDS011;10223;50.862;4.360;2023-08-30T10:07:55;12.30;;;7.23;;
20124;SDS011;10223;50.862;4.360;2023-08-30T10:10:22;10.63;;;6.32;;
20124;SDS011;10223;50.862;4.360;2023-08-30T10:12:49;9.17;;;6.63;;
20124;SDS011;10223;50.862;4.360;2023-08-30T10:15:18;11.27;;;7.00;;
20124;SDS011;10223;50.862;4.360;2023-08-30T10:17:47;12.63;;;7.20;;
20124;SDS011;10223;50.862;4.360;2023-08-30T10:20:20;12.77;;;7.57;;
20124;SDS011;10223;50.862;4.360;2023-08-30T10:22:47;13.23;;;7.95;;
20124;SDS011;10223;50.862;4.360;2023-08-30T10:25:17;10.37;;;7.37;;
20124;SDS011;10223;50.862;4.360;2023-08-30T10:27:48;11.03;;;7.73;;
20124;SDS011;10223;50.862;4.360;2023-08-30T10:30:16;9.80;;;7.30;;
20124;SDS011;10223;50.862;4.360;2023-08-30T10:32:45;10.20;;;7.05;;
20124;SDS011;10223;50.862;4.360;2023-08-30T10:35:13;10.57;;;7.83;;
20124;SDS011;10223;50.862;4.360;2023-08-30T10:37:42;10.40;;;7.30;;
20124;SDS011;10223;50.862;4.360;2023-08-30T10:40:20;8.93;;;6.90;;
20124;SDS011;10223;50.862;4.360;2023-08-30T10:42:47;10.20;;;6.63;;
20124;SDS011;10223;50.862;4.360;2023-08-30T10:45:24;10.80;;;6.70;;
20124;SDS011;10223;50.862;4.360;2023-08-30T10:47:54;10.27;;;7.78;;
20124;SDS011;10223;50.862;4.360;2023-08-30T10:50:27;11.10;;;7.35;;
20124;SDS011;10223;50.862;4.360;2023-08-30T10:52:56;12.85;;;7.75;;
20124;SDS011;10223;50.862;4.360;2023-08-30T10:55:23;10.90;;;7.05;;
20124;SDS011;10223;50.862;4.360;2023-08-30T10:57:57;12.15;;;6.93;;
20124;SDS011;10223;50.862;4.360;2023-08-30T11:00:27;9.70;;;6.95;;
20124;SDS011;10223;50.862;4.360;2023-08-30T11:02:54;12.20;;;7.07;;
20124;SDS011;10223;50.862;4.360;2023-08-30T11:05:22;10.75;;;7.47;;
20124;SDS011;10223;50.862;4.360;2023-08-30T11:07:50;16.77;;;9.77;;
20124;SDS011;10223;50.862;4.360;2023-08-30T11:10:20;11.93;;;6.88;;
20124;SDS011;10223;50.862;4.360;2023-08-30T11:12:48;12.85;;;7.43;;
20124;SDS011;10223;50.862;4.360;2023-08-30T11:15:15;8.75;;;6.25;;
20124;SDS011;10223;50.862;4.360;2023-08-30T11:17:42;12.30;;;6.80;;
20124;SDS011;10223;50.862;4.360;2023-08-30T11:20:10;9.05;;;6.55;;
20124;SDS011;10223;50.862;4.360;2023-08-30T11:22:38;11.15;;;6.47;;
20124;SDS011;10223;50.862;4.360;2023-08-30T11:25:08;8.70;;;5.75;;
20124;SDS011;10223;50.862;4.360;2023-08-30T11:27:37;14.10;;;6.30;;
20124;SDS011;10223;50.862;4.360;2023-08-30T11:30:05;10.65;;;5.22;;
20124;SDS011;10223;50.862;4.360;2023-08-30T11:32:34;10.32;;;4.70;;
20124;SDS011;10223;50.862;4.360;2023-08-30T11:35:02;10.80;;;3.90;;
20124;SDS011;10223;50.862;4.360;2023-08-30T11:37:30;9.20;;;3.00;;
20124;SDS011;10223;50.862;4.360;2023-08-30T11:39:57;7.72;;;3.08;;
20124;SDS011;10223;50.862;4.360;2023-08-30T11:42:24;7.70;;;2.20;;
20124;SDS011;10223;50.862;4.360;2023-08-30T11:44:53;7.70;;;2.40;;
20124;SDS011;10223;50.862;4.360;2023-08-30T11:47:20;11.00;;;2.35;;
20124;SDS011;10223;50.862;4.360;2023-08-30T11:49:49;9.23;;;2.63;;
20124;SDS011;10223;50.862;4.360;2023-08-30T11:52:18;10.68;;;5.05;;
20124;SDS011;10223;50.862;4.360;2023-08-30T11:54:46;9.68;;;2.40;;
20124;SDS011;10223;50.862;4.360;2023-08-30T11:57:13;9.18;;;2.10;;
20124;SDS011;10223;50.862;4.360;2023-08-30T11:59:40;10.10;;;2.08;;
20124;SDS011;10223;50.862;4.360;2023-08-30T12:02:08;9.55;;;2.05;;
20124;SDS011;10223;50.862;4.360;2023-08-30T12:04:41;9.30;;;1.98;;
20124;SDS011;10223;50.862;4.360;2023-08-30T12:07:08;10.13;;;2.00;;
20124;SDS011;10223;50.862;4.360;2023-08-30T12:09:36;6.47;;;1.80;;
20124;SDS011;10223;50.862;4.360;2023-08-30T12:12:05;6.78;;;2.20;;
20124;SDS011;10223;50.862;4.360;2023-08-30T12:14:33;8.85;;;2.15;;
20124;SDS011;10223;50.862;4.360;2023-08-30T12:17:00;10.60;;;2.35;;
20124;SDS011;10223;50.862;4.360;2023-08-30T12:19:30;8.43;;;2.20;;
20124;SDS011;10223;50.862;4.360;2023-08-30T12:22:02;10.30;;;2.22;;
20124;SDS011;10223;50.862;4.360;2023-08-30T12:24:39;7.28;;;2.08;;
20124;SDS011;10223;50.862;4.360;2023-08-30T12:27:07;9.95;;;2.33;;
20124;SDS011;10223;50.862;4.360;2023-08-30T12:29:34;7.93;;;2.00;;
20124;SDS011;10223;50.862;4.360;2023-08-30T12:32:01;8.63;;;1.70;;
20124;SDS011;10223;50.862;4.360;2023-08-30T12:34:29;11.70;;;2.47;;
20124;SDS011;10223;50.862;4.360;2023-08-30T12:36:56;12.88;;;2.60;;
20124;SDS011;10223;50.862;4.360;2023-08-30T12:39:23;14.02;;;2.90;;
20124;SDS011;10223;50.862;4.360;2023-08-30T12:41:50;7.32;;;2.33;;
20124;SDS011;10223;50.862;4.360;2023-08-30T12:44:17;6.07;;;1.88;;
20124;SDS011;10223;50.862;4.360;2023-08-30T12:46:44;12.35;;;2.05;;
20124;SDS011;10223;50.862;4.360;2023-08-30T12:49:11;5.47;;;1.58;;
20124;SDS011;10223;50.862;4.360;2023-08-30T12:51:39;8.60;;;2.25;;
20124;SDS011;10223;50.862;4.360;2023-08-30T12:54:06;8.02;;;1.80;;
20124;SDS011;10223;50.862;4.360;2023-08-30T12:56:33;5.78;;;2.08;;
20124;SDS011;10223;50.862;4.360;2023-08-30T12:59:00;8.43;;;2.25;;
20124;SDS011;10223;50.862;4.360;2023-08-30T13:01:27;6.97;;;2.03;;
20124;SDS011;10223;50.862;4.360;2023-08-30T13:03:54;5.97;;;2.20;;
20124;SDS011;10223;50.862;4.360;2023-08-30T13:06:20;7.03;;;1.88;;
20124;SDS011;10223;50.862;4.360;2023-08-30T13:08:49;7.90;;;1.80;;
20124;SDS011;10223;50.862;4.360;2023-08-30T13:11:15;3.75;;;1.20;;
20124;SDS011;10223;50.862;4.360;2023-08-30T13:13:42;7.43;;;2.30;;
20124;SDS011;10223;50.862;4.360;2023-08-30T13:16:09;6.97;;;1.30;;
20124;SDS011;10223;50.862;4.360;2023-08-30T13:18:36;8.77;;;2.10;;
20124;SDS011;10223;50.862;4.360;2023-08-30T13:21:03;4.25;;;1.25;;
20124;SDS011;10223;50.862;4.360;2023-08-30T13:23:30;10.30;;;2.25;;
20124;SDS011;10223;50.862;4.360;2023-08-30T13:25:58;5.63;;;1.80;;
20124;SDS011;10223;50.862;4.360;2023-08-30T13:28:25;4.10;;;1.63;;
20124;SDS011;10223;50.862;4.360;2023-08-30T13:30:52;7.47;;;1.95;;
20124;SDS011;10223;50.862;4.360;2023-08-30T13:33:19;6.07;;;1.40;;
20124;SDS011;10223;50.862;4.360;2023-08-30T13:35:48;8.55;;;1.38;;
20124;SDS011;10223;50.862;4.360;2023-08-30T13:38:16;5.65;;;1.38;;
20124;SDS011;10223;50.862;4.360;2023-08-30T13:40:43;4.40;;;1.13;;
20124;SDS011;10223;50.862;4.360;2023-08-30T13:43:12;8.30;;;1.20;;
20124;SDS011;10223;50.862;4.360;2023-08-30T13:45:38;8.18;;;1.73;;
20124;SDS011;10223;50.862;4.360;2023-08-30T13:48:05;5.38;;;1.85;;
20124;SDS011;10223;50.862;4.360;2023-08-30T13:50:32;9.70;;;1.42;;
20124;SDS011;10223;50.862;4.360;2023-08-30T13:52:59;6.47;;;1.83;;
20124;SDS011;10223;50.862;4.360;2023-08-30T13:55:26;5.43;;;1.23;;
20124;SDS011;10223;50.862;4.360;2023-08-30T13:57:53;11.05;;;1.92;;
20124;SDS011;10223;50.862;4.360;2023-08-30T14:00:21;6.22;;;1.58;;
20124;SDS011;10223;50.862;4.360;2023-08-30T14:02:49;5.15;;;1.13;;
20124;SDS011;10223;50.862;4.360;2023-08-30T14:05:16;9.30;;;1.40;;
20124;SDS011;10223;50.862;4.360;2023-08-30T14:07:44;4.43;;;1.33;;
20124;SDS011;10223;50.862;4.360;2023-08-30T14:10:10;3.60;;;1.17;;
20124;SDS011;10223;50.862;4.360;2023-08-30T14:12:41;4.30;;;1.30;;
20124;SDS011;10223;50.862;4.360;2023-08-30T14:15:08;5.93;;;1.60;;
20124;SDS011;10223;50.862;4.360;2023-08-30T14:17:36;4.38;;;1.42;;
20124;SDS011;10223;50.862;4.360;2023-08-30T14:20:04;8.98;;;2.00;;
20124;SDS011;10223;50.862;4.360;2023-08-30T14:22:32;6.93;;;2.17;;
20124;SDS011;10223;50.862;4.360;2023-08-30T14:24:59;4.72;;;2.03;;
20124;SDS011;10223;50.862;4.360;2023-08-30T14:27:25;4.45;;;1.80;;
20124;SDS011;10223;50.862;4.360;2023-08-30T14:29:53;8.70;;;1.67;;
20124;SDS011;10223;50.862;4.360;2023-08-30T14:32:20;4.63;;;1.60;;
20124;SDS011;10223;50.862;4.360;2023-08-30T14:34:48;8.82;;;2.17;;
20124;SDS011;10223;50.862;4.360;2023-08-30T14:37:15;4.38;;;1.10;;
20124;SDS011;10223;50.862;4.360;2023-08-30T14:39:42;6.18;;;1.95;;
20124;SDS011;10223;50.862;4.360;2023-08-30T14:42:09;6.47;;;2.20;;
20124;SDS011;10223;50.862;4.360;2023-08-30T14:44:36;5.20;;;1.23;;